sensor_id;sensor_type;location;lat;lon;timestamp;P1;durP1;ratioP1;P2;durP2;ratioP2
69623;SDS011;56843;52.020;5.670;2022-07-29T00:00:22;2.97;;;0.83;;
69623;SDS011;56843;52.020;5.670;2022-07-29T00:01:52;3.50;;;1.10;;
69623;SDS011;56843;52.020;5.670;2022-07-29T00:03:23;3.70;;;1.27;;
69623;SDS011;56843;52.020;5.670;2022-07-29T00:04:53;3.00;;;1.05;;
69623;SDS011;56843;52.020;5.670;2022-07-29T00:06:24;7.73;;;1.37;;
69623;SDS011;56843;52.020;5.670;2022-07-29T00:07:54;3.55;;;1.20;;
69623;SDS011;56843;52.020;5.670;2022-07-29T00:09:25;6.67;;;1.50;;
69623;SDS011;56843;52.020;5.670;2022-07-29T00:10:55;4.73;;;1.00;;
69623;SDS011;56843;52.020;5.670;2022-07-29T00:12:25;5.23;;;1.23;;
69623;SDS011;56843;52.020;5.670;2022-07-29T00:13:56;4.43;;;1.50;;
69623;SDS011;56843;52.020;5.670;2022-07-29T00:15:27;6.90;;;1.60;;
69623;SDS011;56843;52.020;5.670;2022-07-29T00:16:57;3.00;;;1.02;;
69623;SDS011;56843;52.020;5.670;2022-07-29T00:18:28;8.50;;;1.20;;
69623;SDS011;56843;52.020;5.670;2022-07-29T00:19:58;3.37;;;1.23;;
69623;SDS011;56843;52.020;5.670;2022-07-29T00:21:28;4.27;;;1.20;;
69623;SDS011;56843;52.020;5.670;2022-07-29T00:22:59;2.75;;;0.93;;
69623;SDS011;56843;52.020;5.670;2022-07-29T00:24:29;2.93;;;1.20;;
69623;SDS011;56843;52.020;5.670;2022-07-29T00:26:00;4.07;;;1.30;;
69623;SDS011;56843;52.020;5.670;2022-07-29T00:27:30;6.20;;;1.20;;
69623;SDS011;56843;52.020;5.670;2022-07-29T00:29:02;5.83;;;1.50;;
69623;SDS011;56843;52.020;5.670;2022-07-29T00:30:34;5.05;;;1.58;;
69623;SDS011;56843;52.020;5.670;2022-07-29T00:32:04;8.00;;;1.38;;
69623;SDS011;56843;52.020;5.670;2022-07-29T00:33:35;5.83;;;1.67;;
69623;SDS011;56843;52.020;5.670;2022-07-29T00:35:06;6.18;;;1.17;;
69623;SDS011;56843;52.020;5.670;2022-07-29T00:36:56;6.53;;;1.40;;
69623;SDS011;56843;52.020;5.670;2022-07-29T00:38:27;4.67;;;1.50;;
69623;SDS011;56843;52.020;5.670;2022-07-29T00:39:57;8.05;;;1.92;;
69623;SDS011;56843;52.020;5.670;2022-07-29T00:41:28;3.97;;;1.40;;
69623;SDS011;56843;52.020;5.670;2022-07-29T00:42:59;4.37;;;1.43;;
69623;SDS011;56843;52.020;5.670;2022-07-29T00:44:29;5.05;;;1.40;;
69623;SDS011;56843;52.020;5.670;2022-07-29T00:46:00;4.33;;;1.20;;
69623;SDS011;56843;52.020;5.670;2022-07-29T00:47:30;5.68;;;1.33;;
69623;SDS011;56843;52.020;5.670;2022-07-29T00:49:01;3.37;;;1.17;;
69623;SDS011;56843;52.020;5.670;2022-07-29T00:50:31;5.07;;;1.47;;
69623;SDS011;56843;52.020;5.670;2022-07-29T00:52:03;3.13;;;1.25;;
69623;SDS011;56843;52.020;5.670;2022-07-29T00:53:35;3.63;;;1.30;;
69623;SDS011;56843;52.020;5.670;2022-07-29T00:55:07;3.80;;;1.17;;
69623;SDS011;56843;52.020;5.670;2022-07-29T00:56:40;6.22;;;1.58;;
69623;SDS011;56843;52.020;5.670;2022-07-29T00:58:12;5.43;;;1.13;;
69623;SDS011;56843;52.020;5.670;2022-07-29T00:59:43;4.03;;;1.42;;
69623;SDS011;56843;52.020;5.670;2022-07-29T01:01:14;4.97;;;1.63;;
69623;SDS011;56843;52.020;5.670;2022-07-29T01:02:45;6.43;;;1.63;;
69623;SDS011;56843;52.020;5.670;2022-07-29T01:04:18;4.88;;;1.25;;
69623;SDS011;56843;52.020;5.670;2022-07-29T01:05:49;4.30;;;1.50;;
69623;SDS011;56843;52.020;5.670;2022-07-29T01:07:20;4.43;;;1.60;;
69623;SDS011;56843;52.020;5.670;2022-07-29T01:08:51;5.38;;;1.55;;
69623;SDS011;56843;52.020;5.670;2022-07-29T01:10:21;2.73;;;1.20;;
69623;SDS011;56843;52.020;5.670;2022-07-29T01:11:53;6.70;;;1.55;;
69623;SDS011;56843;52.020;5.670;2022-07-29T01:13:24;5.90;;;1.40;;
69623;SDS011;56843;52.020;5.670;2022-07-29T01:14:55;5.37;;;1.37;;
69623;SDS011;56843;52.020;5.670;2022-07-29T01:16:33;3.03;;;1.20;;
69623;SDS011;56843;52.020;5.670;2022-07-29T01:18:19;7.70;;;1.40;;
69623;SDS011;56843;52.020;5.670;2022-07-29T01:20:06;7.28;;;1.60;;
69623;SDS011;56843;52.020;5.670;2022-07-29T01:21:53;5.75;;;1.10;;
69623;SDS011;56843;52.020;5.670;2022-07-29T01:29:12;7.10;;;1.23;;
69623;SDS011;56843;52.020;5.670;2022-07-29T01:30:44;3.40;;;1.27;;
69623;SDS011;56843;52.020;5.670;2022-07-29T01:32:20;8.05;;;1.35;;
69623;SDS011;56843;52.020;5.670;2022-07-29T01:33:58;4.18;;;1.40;;
69623;SDS011;56843;52.020;5.670;2022-07-29T01:35:40;5.53;;;1.42;;
69623;SDS011;56843;52.020;5.670;2022-07-29T01:37:26;3.70;;;1.15;;
69623;SDS011;56843;52.020;5.670;2022-07-29T01:39:07;5.63;;;1.40;;
69623;SDS011;56843;52.020;5.670;2022-07-29T01:44:17;3.42;;;1.30;;
69623;SDS011;56843;52.020;5.670;2022-07-29T01:45:56;9.67;;;1.63;;
69623;SDS011;56843;52.020;5.670;2022-07-29T01:47:35;3.80;;;1.40;;
69623;SDS011;56843;52.020;5.670;2022-07-29T01:49:16;3.35;;;1.30;;
69623;SDS011;56843;52.020;5.670;2022-07-29T01:50:51;7.20;;;1.70;;
69623;SDS011;56843;52.020;5.670;2022-07-29T01:52:34;5.43;;;1.50;;
69623;SDS011;56843;52.020;5.670;2022-07-29T01:55:59;4.75;;;1.38;;
69623;SDS011;56843;52.020;5.670;2022-07-29T01:57:31;3.80;;;1.42;;
69623;SDS011;56843;52.020;5.670;2022-07-29T01:59:06;9.20;;;1.90;;
69623;SDS011;56843;52.020;5.670;2022-07-29T02:00:39;2.92;;;1.27;;
69623;SDS011;56843;52.020;5.670;2022-07-29T02:02:10;6.40;;;1.50;;
69623;SDS011;56843;52.020;5.670;2022-07-29T02:03:45;4.87;;;1.63;;
69623;SDS011;56843;52.020;5.670;2022-07-29T02:05:17;6.93;;;1.73;;
69623;SDS011;56843;52.020;5.670;2022-07-29T02:06:51;7.95;;;1.80;;
69623;SDS011;56843;52.020;5.670;2022-07-29T02:08:24;4.18;;;1.42;;
69623;SDS011;56843;52.020;5.670;2022-07-29T02:09:56;4.97;;;1.42;;
69623;SDS011;56843;52.020;5.670;2022-07-29T02:11:29;5.53;;;1.63;;
69623;SDS011;56843;52.020;5.670;2022-07-29T02:13:02;6.65;;;1.77;;
69623;SDS011;56843;52.020;5.670;2022-07-29T02:14:36;5.10;;;1.42;;
69623;SDS011;56843;52.020;5.670;2022-07-29T02:16:09;7.05;;;1.60;;
69623;SDS011;56843;52.020;5.670;2022-07-29T02:17:43;3.27;;;1.30;;
69623;SDS011;56843;52.020;5.670;2022-07-29T02:19:19;5.80;;;2.00;;
69623;SDS011;56843;52.020;5.670;2022-07-29T02:20:53;4.53;;;1.48;;
69623;SDS011;56843;52.020;5.670;2022-07-29T02:22:26;4.15;;;1.48;;
69623;SDS011;56843;52.020;5.670;2022-07-29T02:23:59;6.93;;;1.40;;
69623;SDS011;56843;52.020;5.670;2022-07-29T02:25:31;6.10;;;1.60;;
69623;SDS011;56843;52.020;5.670;2022-07-29T02:27:02;3.58;;;1.75;;
69623;SDS011;56843;52.020;5.670;2022-07-29T02:28:33;4.33;;;1.80;;
69623;SDS011;56843;52.020;5.670;2022-07-29T02:30:04;7.43;;;1.20;;
69623;SDS011;56843;52.020;5.670;2022-07-29T02:31:37;7.05;;;1.15;;
69623;SDS011;56843;52.020;5.670;2022-07-29T02:33:09;4.63;;;1.73;;
69623;SDS011;56843;52.020;5.670;2022-07-29T02:34:43;8.00;;;1.67;;
69623;SDS011;56843;52.020;5.670;2022-07-29T02:36:14;5.93;;;1.60;;
69623;SDS011;56843;52.020;5.670;2022-07-29T02:37:46;8.40;;;2.05;;
69623;SDS011;56843;52.020;5.670;2022-07-29T02:39:37;5.95;;;1.70;;
69623;SDS011;56843;52.020;5.670;2022-07-29T02:41:11;5.97;;;2.00;;
69623;SDS011;56843;52.020;5.670;2022-07-29T02:42:45;4.90;;;1.47;;
69623;SDS011;56843;52.020;5.670;2022-07-29T02:44:20;5.35;;;1.63;;
69623;SDS011;56843;52.020;5.670;2022-07-29T02:45:54;4.13;;;1.50;;
69623;SDS011;56843;52.020;5.670;2022-07-29T02:47:36;7.43;;;2.05;;
69623;SDS011;56843;52.020;5.670;2022-07-29T02:53:18;4.75;;;1.42;;
69623;SDS011;56843;52.020;5.670;2022-07-29T02:54:56;5.45;;;1.92;;
69623;SDS011;56843;52.020;5.670;2022-07-29T02:56:30;5.95;;;2.05;;
69623;SDS011;56843;52.020;5.670;2022-07-29T02:59:58;7.57;;;2.10;;
69623;SDS011;56843;52.020;5.670;2022-07-29T03:01:34;4.85;;;1.60;;
69623;SDS011;56843;52.020;5.670;2022-07-29T03:03:09;5.97;;;2.00;;
69623;SDS011;56843;52.020;5.670;2022-07-29T03:04:45;6.78;;;2.40;;
69623;SDS011;56843;52.020;5.670;2022-07-29T03:06:17;6.20;;;1.80;;
69623;SDS011;56843;52.020;5.670;2022-07-29T03:07:51;4.55;;;1.85;;
69623;SDS011;56843;52.020;5.670;2022-07-29T03:09:27;4.38;;;1.83;;
69623;SDS011;56843;52.020;5.670;2022-07-29T03:10:58;4.50;;;2.10;;
69623;SDS011;56843;52.020;5.670;2022-07-29T03:12:30;6.88;;;2.30;;
69623;SDS011;56843;52.020;5.670;2022-07-29T03:14:01;7.17;;;2.00;;
69623;SDS011;56843;52.020;5.670;2022-07-29T03:15:32;7.68;;;2.72;;
69623;SDS011;56843;52.020;5.670;2022-07-29T03:17:03;5.40;;;2.10;;
69623;SDS011;56843;52.020;5.670;2022-07-29T03:18:35;7.97;;;2.40;;
69623;SDS011;56843;52.020;5.670;2022-07-29T03:20:07;7.97;;;2.30;;
69623;SDS011;56843;52.020;5.670;2022-07-29T03:21:38;4.07;;;1.67;;
69623;SDS011;56843;52.020;5.670;2022-07-29T03:23:09;4.93;;;1.80;;
69623;SDS011;56843;52.020;5.670;2022-07-29T03:24:39;3.23;;;1.53;;
69623;SDS011;56843;52.020;5.670;2022-07-29T03:26:10;4.05;;;1.60;;
69623;SDS011;56843;52.020;5.670;2022-07-29T03:27:41;4.22;;;1.67;;
69623;SDS011;56843;52.020;5.670;2022-07-29T03:29:13;8.13;;;2.20;;
69623;SDS011;56843;52.020;5.670;2022-07-29T03:30:43;4.10;;;1.50;;
69623;SDS011;56843;52.020;5.670;2022-07-29T03:32:14;5.07;;;1.93;;
69623;SDS011;56843;52.020;5.670;2022-07-29T03:33:44;5.90;;;2.20;;
69623;SDS011;56843;52.020;5.670;2022-07-29T03:35:14;5.80;;;2.13;;
69623;SDS011;56843;52.020;5.670;2022-07-29T03:36:46;5.88;;;2.17;;
69623;SDS011;56843;52.020;5.670;2022-07-29T03:38:17;6.87;;;2.03;;
69623;SDS011;56843;52.020;5.670;2022-07-29T03:39:48;4.95;;;1.67;;
69623;SDS011;56843;52.020;5.670;2022-07-29T03:41:21;5.47;;;2.42;;
69623;SDS011;56843;52.020;5.670;2022-07-29T03:42:54;4.63;;;1.98;;
69623;SDS011;56843;52.020;5.670;2022-07-29T03:44:25;4.43;;;1.80;;
69623;SDS011;56843;52.020;5.670;2022-07-29T03:45:57;7.47;;;1.80;;
69623;SDS011;56843;52.020;5.670;2022-07-29T03:47:31;5.63;;;2.33;;
69623;SDS011;56843;52.020;5.670;2022-07-29T03:49:04;14.00;;;2.60;;
69623;SDS011;56843;52.020;5.670;2022-07-29T03:50:38;6.13;;;2.40;;
69623;SDS011;56843;52.020;5.670;2022-07-29T03:52:08;5.30;;;2.20;;
69623;SDS011;56843;52.020;5.670;2022-07-29T03:53:39;9.18;;;2.60;;
69623;SDS011;56843;52.020;5.670;2022-07-29T03:55:09;6.73;;;2.13;;
69623;SDS011;56843;52.020;5.670;2022-07-29T03:56:41;9.37;;;1.90;;
69623;SDS011;56843;52.020;5.670;2022-07-29T03:58:16;6.18;;;1.73;;
69623;SDS011;56843;52.020;5.670;2022-07-29T03:59:49;7.63;;;2.20;;
69623;SDS011;56843;52.020;5.670;2022-07-29T04:01:22;4.28;;;1.75;;
69623;SDS011;56843;52.020;5.670;2022-07-29T04:02:53;4.32;;;1.77;;
69623;SDS011;56843;52.020;5.670;2022-07-29T04:04:24;6.30;;;1.70;;
69623;SDS011;56843;52.020;5.670;2022-07-29T04:06:01;3.30;;;1.20;;
69623;SDS011;56843;52.020;5.670;2022-07-29T04:07:35;8.80;;;2.03;;
69623;SDS011;56843;52.020;5.670;2022-07-29T04:09:06;4.90;;;2.10;;
69623;SDS011;56843;52.020;5.670;2022-07-29T04:10:37;5.88;;;2.33;;
69623;SDS011;56843;52.020;5.670;2022-07-29T04:12:08;6.47;;;2.20;;
69623;SDS011;56843;52.020;5.670;2022-07-29T04:13:39;5.20;;;2.37;;
69623;SDS011;56843;52.020;5.670;2022-07-29T04:15:09;5.50;;;2.08;;
69623;SDS011;56843;52.020;5.670;2022-07-29T04:16:40;5.63;;;2.03;;
69623;SDS011;56843;52.020;5.670;2022-07-29T04:18:11;6.90;;;2.30;;
69623;SDS011;56843;52.020;5.670;2022-07-29T04:19:41;4.77;;;1.90;;
69623;SDS011;56843;52.020;5.670;2022-07-29T04:21:12;12.23;;;2.40;;
69623;SDS011;56843;52.020;5.670;2022-07-29T04:22:42;6.97;;;2.27;;
69623;SDS011;56843;52.020;5.670;2022-07-29T04:24:13;4.05;;;1.60;;
69623;SDS011;56843;52.020;5.670;2022-07-29T04:25:43;4.10;;;1.90;;
69623;SDS011;56843;52.020;5.670;2022-07-29T04:27:14;4.63;;;1.93;;
69623;SDS011;56843;52.020;5.670;2022-07-29T04:28:44;6.22;;;1.80;;
69623;SDS011;56843;52.020;5.670;2022-07-29T04:30:16;5.93;;;2.10;;
69623;SDS011;56843;52.020;5.670;2022-07-29T04:31:46;8.23;;;1.98;;
69623;SDS011;56843;52.020;5.670;2022-07-29T04:33:17;6.70;;;2.30;;
69623;SDS011;56843;52.020;5.670;2022-07-29T04:34:47;5.50;;;2.20;;
69623;SDS011;56843;52.020;5.670;2022-07-29T04:36:18;8.27;;;2.77;;
69623;SDS011;56843;52.020;5.670;2022-07-29T04:37:48;5.47;;;2.10;;
69623;SDS011;56843;52.020;5.670;2022-07-29T04:39:18;5.67;;;1.20;;
69623;SDS011;56843;52.020;5.670;2022-07-29T04:40:49;10.27;;;1.85;;
69623;SDS011;56843;52.020;5.670;2022-07-29T04:42:19;5.73;;;1.97;;
69623;SDS011;56843;52.020;5.670;2022-07-29T04:43:50;5.13;;;1.90;;
69623;SDS011;56843;52.020;5.670;2022-07-29T04:45:21;4.90;;;2.10;;
69623;SDS011;56843;52.020;5.670;2022-07-29T04:46:52;5.20;;;1.70;;
69623;SDS011;56843;52.020;5.670;2022-07-29T04:48:22;8.93;;;2.42;;
69623;SDS011;56843;52.020;5.670;2022-07-29T04:49:53;5.03;;;2.10;;
69623;SDS011;56843;52.020;5.670;2022-07-29T04:51:23;4.87;;;1.90;;
69623;SDS011;56843;52.020;5.670;2022-07-29T04:52:53;4.87;;;2.00;;
69623;SDS011;56843;52.020;5.670;2022-07-29T04:54:24;9.67;;;2.63;;
69623;SDS011;56843;52.020;5.670;2022-07-29T04:55:54;5.07;;;2.33;;
69623;SDS011;56843;52.020;5.670;2022-07-29T04:57:25;8.73;;;2.10;;
69623;SDS011;56843;52.020;5.670;2022-07-29T04:58:55;3.43;;;1.40;;
69623;SDS011;56843;52.020;5.670;2022-07-29T05:00:26;8.37;;;2.27;;
69623;SDS011;56843;52.020;5.670;2022-07-29T05:01:56;8.07;;;2.08;;
69623;SDS011;56843;52.020;5.670;2022-07-29T05:03:27;7.97;;;2.40;;
69623;SDS011;56843;52.020;5.670;2022-07-29T05:04:57;4.70;;;1.97;;
69623;SDS011;56843;52.020;5.670;2022-07-29T05:06:28;7.85;;;2.53;;
69623;SDS011;56843;52.020;5.670;2022-07-29T05:07:58;7.43;;;1.77;;
69623;SDS011;56843;52.020;5.670;2022-07-29T05:09:29;8.53;;;2.40;;
69623;SDS011;56843;52.020;5.670;2022-07-29T05:10:59;6.05;;;2.33;;
69623;SDS011;56843;52.020;5.670;2022-07-29T05:12:30;4.80;;;1.87;;
69623;SDS011;56843;52.020;5.670;2022-07-29T05:14:00;6.07;;;2.23;;
69623;SDS011;56843;52.020;5.670;2022-07-29T05:15:31;5.38;;;2.28;;
69623;SDS011;56843;52.020;5.670;2022-07-29T05:17:01;5.20;;;2.10;;
69623;SDS011;56843;52.020;5.670;2022-07-29T05:18:32;5.43;;;2.15;;
69623;SDS011;56843;52.020;5.670;2022-07-29T05:20:03;5.50;;;2.33;;
69623;SDS011;56843;52.020;5.670;2022-07-29T05:21:34;5.82;;;2.20;;
69623;SDS011;56843;52.020;5.670;2022-07-29T05:23:04;7.23;;;2.03;;
69623;SDS011;56843;52.020;5.670;2022-07-29T05:24:35;6.72;;;2.50;;
69623;SDS011;56843;52.020;5.670;2022-07-29T05:26:05;5.17;;;2.00;;
69623;SDS011;56843;52.020;5.670;2022-07-29T05:27:36;7.23;;;2.40;;
69623;SDS011;56843;52.020;5.670;2022-07-29T05:29:06;6.05;;;2.55;;
69623;SDS011;56843;52.020;5.670;2022-07-29T05:30:37;8.40;;;2.60;;
69623;SDS011;56843;52.020;5.670;2022-07-29T05:32:08;5.82;;;2.72;;
69623;SDS011;56843;52.020;5.670;2022-07-29T05:33:38;5.80;;;2.23;;
69623;SDS011;56843;52.020;5.670;2022-07-29T05:35:08;6.23;;;2.03;;
69623;SDS011;56843;52.020;5.670;2022-07-29T05:36:39;4.90;;;2.00;;
69623;SDS011;56843;52.020;5.670;2022-07-29T05:38:10;7.87;;;2.63;;
69623;SDS011;56843;52.020;5.670;2022-07-29T05:39:40;6.83;;;2.20;;
69623;SDS011;56843;52.020;5.670;2022-07-29T05:41:10;12.43;;;2.60;;
69623;SDS011;56843;52.020;5.670;2022-07-29T05:42:41;6.97;;;2.17;;
69623;SDS011;56843;52.020;5.670;2022-07-29T05:44:12;7.10;;;2.10;;
69623;SDS011;56843;52.020;5.670;2022-07-29T05:45:43;10.52;;;2.42;;
69623;SDS011;56843;52.020;5.670;2022-07-29T05:47:14;5.93;;;2.20;;
69623;SDS011;56843;52.020;5.670;2022-07-29T05:48:44;8.67;;;2.50;;
69623;SDS011;56843;52.020;5.670;2022-07-29T05:50:15;10.80;;;2.85;;
69623;SDS011;56843;52.020;5.670;2022-07-29T05:51:45;10.33;;;2.50;;
69623;SDS011;56843;52.020;5.670;2022-07-29T05:53:17;6.35;;;2.55;;
69623;SDS011;56843;52.020;5.670;2022-07-29T05:54:47;15.17;;;2.57;;
69623;SDS011;56843;52.020;5.670;2022-07-29T05:56:18;5.80;;;2.53;;
69623;SDS011;56843;52.020;5.670;2022-07-29T05:57:48;6.70;;;2.50;;
69623;SDS011;56843;52.020;5.670;2022-07-29T05:59:19;9.60;;;2.10;;
69623;SDS011;56843;52.020;5.670;2022-07-29T06:00:49;10.15;;;2.55;;
69623;SDS011;56843;52.020;5.670;2022-07-29T06:02:20;4.57;;;2.00;;
69623;SDS011;56843;52.020;5.670;2022-07-29T06:03:50;7.07;;;2.60;;
69623;SDS011;56843;52.020;5.670;2022-07-29T06:05:21;6.07;;;2.22;;
69623;SDS011;56843;52.020;5.670;2022-07-29T06:06:51;9.73;;;2.83;;
69623;SDS011;56843;52.020;5.670;2022-07-29T06:08:22;6.50;;;2.20;;
69623;SDS011;56843;52.020;5.670;2022-07-29T06:09:52;7.43;;;2.50;;
69623;SDS011;56843;52.020;5.670;2022-07-29T06:11:23;9.20;;;2.53;;
69623;SDS011;56843;52.020;5.670;2022-07-29T06:12:53;7.37;;;2.27;;
69623;SDS011;56843;52.020;5.670;2022-07-29T06:14:24;5.57;;;2.30;;
69623;SDS011;56843;52.020;5.670;2022-07-29T06:15:55;6.72;;;2.22;;
69623;SDS011;56843;52.020;5.670;2022-07-29T06:17:25;7.47;;;2.30;;
69623;SDS011;56843;52.020;5.670;2022-07-29T06:18:56;8.17;;;2.83;;
69623;SDS011;56843;52.020;5.670;2022-07-29T06:20:27;5.20;;;2.30;;
69623;SDS011;56843;52.020;5.670;2022-07-29T06:21:59;5.47;;;1.97;;
69623;SDS011;56843;52.020;5.670;2022-07-29T06:23:30;7.47;;;2.47;;
69623;SDS011;56843;52.020;5.670;2022-07-29T06:25:01;7.80;;;2.50;;
69623;SDS011;56843;52.020;5.670;2022-07-29T06:26:31;6.47;;;2.22;;
69623;SDS011;56843;52.020;5.670;2022-07-29T06:28:02;5.90;;;2.20;;
69623;SDS011;56843;52.020;5.670;2022-07-29T06:29:33;4.70;;;2.15;;
69623;SDS011;56843;52.020;5.670;2022-07-29T06:31:04;5.90;;;2.17;;
69623;SDS011;56843;52.020;5.670;2022-07-29T06:32:35;5.30;;;1.93;;
69623;SDS011;56843;52.020;5.670;2022-07-29T06:34:06;9.80;;;2.60;;
69623;SDS011;56843;52.020;5.670;2022-07-29T06:35:36;7.67;;;2.60;;
69623;SDS011;56843;52.020;5.670;2022-07-29T06:37:08;6.45;;;2.40;;
69623;SDS011;56843;52.020;5.670;2022-07-29T06:38:39;6.90;;;2.50;;
69623;SDS011;56843;52.020;5.670;2022-07-29T06:40:10;4.88;;;2.10;;
69623;SDS011;56843;52.020;5.670;2022-07-29T06:41:59;5.18;;;2.10;;
69623;SDS011;56843;52.020;5.670;2022-07-29T06:43:34;5.10;;;2.00;;
69623;SDS011;56843;52.020;5.670;2022-07-29T06:45:07;6.38;;;2.40;;
69623;SDS011;56843;52.020;5.670;2022-07-29T06:46:38;7.85;;;2.28;;
69623;SDS011;56843;52.020;5.670;2022-07-29T06:48:09;7.23;;;2.27;;
69623;SDS011;56843;52.020;5.670;2022-07-29T06:49:39;4.28;;;1.63;;
69623;SDS011;56843;52.020;5.670;2022-07-29T06:51:10;7.20;;;2.67;;
69623;SDS011;56843;52.020;5.670;2022-07-29T06:52:41;5.38;;;2.00;;
69623;SDS011;56843;52.020;5.670;2022-07-29T06:54:12;7.93;;;2.38;;
69623;SDS011;56843;52.020;5.670;2022-07-29T06:55:42;6.53;;;2.33;;
69623;SDS011;56843;52.020;5.670;2022-07-29T06:57:13;6.23;;;1.90;;
69623;SDS011;56843;52.020;5.670;2022-07-29T06:58:43;6.80;;;2.72;;
69623;SDS011;56843;52.020;5.670;2022-07-29T07:00:14;5.73;;;2.50;;
69623;SDS011;56843;52.020;5.670;2022-07-29T07:01:45;8.48;;;2.20;;
69623;SDS011;56843;52.020;5.670;2022-07-29T07:03:16;5.60;;;2.20;;
69623;SDS011;56843;52.020;5.670;2022-07-29T07:04:47;4.00;;;1.38;;
69623;SDS011;56843;52.020;5.670;2022-07-29T07:06:17;5.53;;;2.17;;
69623;SDS011;56843;52.020;5.670;2022-07-29T07:07:48;7.15;;;2.63;;
69623;SDS011;56843;52.020;5.670;2022-07-29T07:09:19;7.03;;;2.00;;
69623;SDS011;56843;52.020;5.670;2022-07-29T07:10:50;5.00;;;2.00;;
69623;SDS011;56843;52.020;5.670;2022-07-29T07:12:21;6.70;;;2.15;;
69623;SDS011;56843;52.020;5.670;2022-07-29T07:13:52;9.07;;;2.50;;
69623;SDS011;56843;52.020;5.670;2022-07-29T07:15:23;3.28;;;1.50;;
69623;SDS011;56843;52.020;5.670;2022-07-29T07:16:53;8.20;;;2.47;;
69623;SDS011;56843;52.020;5.670;2022-07-29T07:18:24;8.07;;;2.00;;
69623;SDS011;56843;52.020;5.670;2022-07-29T07:19:54;10.67;;;2.27;;
69623;SDS011;56843;52.020;5.670;2022-07-29T07:21:25;3.73;;;1.80;;
69623;SDS011;56843;52.020;5.670;2022-07-29T07:22:55;15.05;;;2.85;;
69623;SDS011;56843;52.020;5.670;2022-07-29T07:24:26;7.97;;;2.60;;
69623;SDS011;56843;52.020;5.670;2022-07-29T07:25:56;6.63;;;2.40;;
69623;SDS011;56843;52.020;5.670;2022-07-29T07:27:26;4.33;;;2.00;;
69623;SDS011;56843;52.020;5.670;2022-07-29T07:28:57;7.00;;;2.23;;
69623;SDS011;56843;52.020;5.670;2022-07-29T07:30:28;6.88;;;2.45;;
69623;SDS011;56843;52.020;5.670;2022-07-29T07:31:59;4.37;;;1.83;;
69623;SDS011;56843;52.020;5.670;2022-07-29T07:33:29;6.68;;;2.30;;
69623;SDS011;56843;52.020;5.670;2022-07-29T07:35:00;5.50;;;2.00;;
69623;SDS011;56843;52.020;5.670;2022-07-29T07:36:31;6.87;;;2.00;;
69623;SDS011;56843;52.020;5.670;2022-07-29T07:38:04;7.32;;;2.05;;
69623;SDS011;56843;52.020;5.670;2022-07-29T07:39:36;9.43;;;1.80;;
69623;SDS011;56843;52.020;5.670;2022-07-29T07:41:06;5.70;;;2.23;;
69623;SDS011;56843;52.020;5.670;2022-07-29T07:42:38;6.47;;;2.10;;
69623;SDS011;56843;52.020;5.670;2022-07-29T07:44:10;6.50;;;2.17;;
69623;SDS011;56843;52.020;5.670;2022-07-29T07:45:41;9.80;;;1.90;;
69623;SDS011;56843;52.020;5.670;2022-07-29T07:47:12;5.50;;;2.10;;
69623;SDS011;56843;52.020;5.670;2022-07-29T07:48:42;6.67;;;2.20;;
69623;SDS011;56843;52.020;5.670;2022-07-29T07:50:13;5.28;;;2.20;;
69623;SDS011;56843;52.020;5.670;2022-07-29T07:51:44;5.80;;;2.27;;
69623;SDS011;56843;52.020;5.670;2022-07-29T07:53:15;4.60;;;1.85;;
69623;SDS011;56843;52.020;5.670;2022-07-29T07:54:45;4.90;;;1.60;;
69623;SDS011;56843;52.020;5.670;2022-07-29T07:56:16;6.53;;;2.30;;
69623;SDS011;56843;52.020;5.670;2022-07-29T07:57:47;5.97;;;2.20;;
69623;SDS011;56843;52.020;5.670;2022-07-29T07:59:18;5.57;;;2.13;;
69623;SDS011;56843;52.020;5.670;2022-07-29T08:00:48;6.23;;;2.20;;
69623;SDS011;56843;52.020;5.670;2022-07-29T08:02:19;7.03;;;2.30;;
69623;SDS011;56843;52.020;5.670;2022-07-29T08:03:49;6.32;;;2.30;;
69623;SDS011;56843;52.020;5.670;2022-07-29T08:05:20;7.03;;;2.20;;
69623;SDS011;56843;52.020;5.670;2022-07-29T08:06:50;4.17;;;1.90;;
69623;SDS011;56843;52.020;5.670;2022-07-29T08:08:21;8.50;;;2.20;;
69623;SDS011;56843;52.020;5.670;2022-07-29T08:09:51;8.13;;;2.43;;
69623;SDS011;56843;52.020;5.670;2022-07-29T08:11:21;11.47;;;2.43;;
69623;SDS011;56843;52.020;5.670;2022-07-29T08:12:52;5.30;;;1.93;;
69623;SDS011;56843;52.020;5.670;2022-07-29T08:14:22;4.90;;;2.40;;
69623;SDS011;56843;52.020;5.670;2022-07-29T08:15:53;5.60;;;2.23;;
69623;SDS011;56843;52.020;5.670;2022-07-29T08:17:27;6.97;;;2.20;;
69623;SDS011;56843;52.020;5.670;2022-07-29T08:18:58;4.85;;;2.28;;
69623;SDS011;56843;52.020;5.670;2022-07-29T08:20:28;7.20;;;2.90;;
69623;SDS011;56843;52.020;5.670;2022-07-29T08:21:59;6.07;;;2.30;;
69623;SDS011;56843;52.020;5.670;2022-07-29T08:23:30;6.20;;;2.60;;
69623;SDS011;56843;52.020;5.670;2022-07-29T08:25:08;7.25;;;2.20;;
69623;SDS011;56843;52.020;5.670;2022-07-29T08:26:39;6.97;;;2.47;;
69623;SDS011;56843;52.020;5.670;2022-07-29T08:28:10;6.97;;;2.60;;
69623;SDS011;56843;52.020;5.670;2022-07-29T08:29:41;3.80;;;1.60;;
69623;SDS011;56843;52.020;5.670;2022-07-29T08:31:12;5.37;;;2.00;;
69623;SDS011;56843;52.020;5.670;2022-07-29T08:32:43;10.50;;;2.47;;
69623;SDS011;56843;52.020;5.670;2022-07-29T08:34:13;6.60;;;2.20;;
69623;SDS011;56843;52.020;5.670;2022-07-29T08:35:43;4.67;;;1.90;;
69623;SDS011;56843;52.020;5.670;2022-07-29T08:37:14;7.43;;;2.35;;
69623;SDS011;56843;52.020;5.670;2022-07-29T08:38:44;5.77;;;2.30;;
69623;SDS011;56843;52.020;5.670;2022-07-29T08:40:15;9.10;;;2.00;;
69623;SDS011;56843;52.020;5.670;2022-07-29T08:41:45;4.97;;;1.83;;
69623;SDS011;56843;52.020;5.670;2022-07-29T08:43:17;13.93;;;3.15;;
69623;SDS011;56843;52.020;5.670;2022-07-29T08:44:48;10.57;;;2.73;;
69623;SDS011;56843;52.020;5.670;2022-07-29T08:46:20;6.95;;;2.03;;
69623;SDS011;56843;52.020;5.670;2022-07-29T08:47:52;6.80;;;2.10;;
69623;SDS011;56843;52.020;5.670;2022-07-29T08:49:22;3.97;;;1.60;;
69623;SDS011;56843;52.020;5.670;2022-07-29T08:50:54;5.20;;;1.70;;
69623;SDS011;56843;52.020;5.670;2022-07-29T08:52:26;7.20;;;2.00;;
69623;SDS011;56843;52.020;5.670;2022-07-29T08:54:00;7.65;;;1.67;;
69623;SDS011;56843;52.020;5.670;2022-07-29T08:55:31;12.38;;;2.63;;
69623;SDS011;56843;52.020;5.670;2022-07-29T08:57:03;8.18;;;2.08;;
69623;SDS011;56843;52.020;5.670;2022-07-29T08:58:34;4.93;;;1.67;;
69623;SDS011;56843;52.020;5.670;2022-07-29T09:00:05;5.47;;;1.87;;
69623;SDS011;56843;52.020;5.670;2022-07-29T09:01:38;5.15;;;2.05;;
69623;SDS011;56843;52.020;5.670;2022-07-29T09:03:10;7.13;;;1.83;;
69623;SDS011;56843;52.020;5.670;2022-07-29T09:04:44;5.78;;;2.00;;
69623;SDS011;56843;52.020;5.670;2022-07-29T09:06:17;5.05;;;2.10;;
69623;SDS011;56843;52.020;5.670;2022-07-29T09:07:51;7.95;;;2.10;;
69623;SDS011;56843;52.020;5.670;2022-07-29T09:09:22;6.40;;;2.08;;
69623;SDS011;56843;52.020;5.670;2022-07-29T09:10:52;3.83;;;1.57;;
69623;SDS011;56843;52.020;5.670;2022-07-29T09:12:23;5.30;;;1.83;;
69623;SDS011;56843;52.020;5.670;2022-07-29T09:13:55;6.50;;;1.80;;
69623;SDS011;56843;52.020;5.670;2022-07-29T09:15:25;8.43;;;2.60;;
69623;SDS011;56843;52.020;5.670;2022-07-29T09:16:56;6.30;;;1.90;;
69623;SDS011;56843;52.020;5.670;2022-07-29T09:18:33;6.53;;;2.10;;
69623;SDS011;56843;52.020;5.670;2022-07-29T09:20:09;8.98;;;1.98;;
69623;SDS011;56843;52.020;5.670;2022-07-29T09:21:44;5.53;;;2.00;;
69623;SDS011;56843;52.020;5.670;2022-07-29T09:23:27;10.00;;;1.98;;
69623;SDS011;56843;52.020;5.670;2022-07-29T09:24:58;6.13;;;2.00;;
69623;SDS011;56843;52.020;5.670;2022-07-29T09:26:29;6.13;;;2.07;;
69623;SDS011;56843;52.020;5.670;2022-07-29T09:28:10;4.80;;;1.90;;
69623;SDS011;56843;52.020;5.670;2022-07-29T09:29:43;7.13;;;2.00;;
69623;SDS011;56843;52.020;5.670;2022-07-29T09:31:13;5.97;;;1.60;;